QR120 OEJN-VGHS
Flight info
| Callsign | QR120 |
|---|---|
| Flight time | N/A |
| Altitude | 39000 |
| Route | EGREP2W EGREP T532 KODIS Y214 RAPMA DCT KUVSO DCT KATIT DCT MIDGU M440 TULBU N881 RASKI/N0488F410 L639 BPL A791 CEA A462 DAC DCT |
| Aircraft | A359/H-SDE2E3GHIJ3J4J5LM1ORWXY/LB1D1 |
Departure
| Time | 2026-04-29 10:12 |
|---|---|
| Airport | King Abdulaziz International Airport (OEJN) |
Arrival
| Time | N/A |
|---|---|
| Airport | Hazrat Shahjalal International Airport (VGHS) |
| Time | Latitude | Longitude | Altitude | Speed | Heading |
|---|---|---|---|---|---|
| 2026-04-29 09:30 | 21.69909 | 39.14392 | 35 ft | 0 kts | 249° |
| 2026-04-29 09:54 | 21.69913 | 39.14404 | 35 ft | 4 kts | 253° |
| 2026-04-29 09:54 | 21.69919 | 39.14432 | 33 ft | 4 kts | 264° |
| 2026-04-29 09:54 | 21.69921 | 39.14460 | 32 ft | 4 kts | 256° |
| 2026-04-29 09:54 | 21.69928 | 39.14479 | 34 ft | 2 kts | 221° |
| 2026-04-29 09:55 | 21.69945 | 39.14493 | 33 ft | 4 kts | 190° |
| 2026-04-29 09:55 | 21.69967 | 39.14492 | 31 ft | 4 kts | 162° |
| 2026-04-29 09:55 | 21.69984 | 39.14486 | 33 ft | 2 kts | 165° |
| 2026-04-29 09:58 | 21.69948 | 39.14496 | 33 ft | 18 kts | 163° |
| 2026-04-29 09:59 | 21.69822 | 39.14543 | 35 ft | 18 kts | 160° |
| 2026-04-29 09:59 | 21.69699 | 39.14591 | 35 ft | 20 kts | 160° |
| 2026-04-29 09:59 | 21.69567 | 39.14644 | 35 ft | 21 kts | 160° |
| 2026-04-29 09:59 | 21.69427 | 39.14699 | 35 ft | 22 kts | 160° |
| 2026-04-29 10:00 | 21.69289 | 39.14754 | 35 ft | 19 kts | 160° |
| 2026-04-29 10:00 | 21.69159 | 39.14805 | 36 ft | 20 kts | 160° |
| 2026-04-29 10:00 | 21.69023 | 39.14856 | 36 ft | 21 kts | 160° |
| 2026-04-29 10:00 | 21.68883 | 39.14910 | 36 ft | 22 kts | 158° |
| 2026-04-29 10:01 | 21.68762 | 39.14963 | 37 ft | 14 kts | 159° |
| 2026-04-29 10:01 | 21.68682 | 39.15020 | 37 ft | 13 kts | 112° |
| 2026-04-29 10:01 | 21.68691 | 39.15117 | 37 ft | 14 kts | 72° |
| 2026-04-29 10:01 | 21.68720 | 39.15213 | 37 ft | 11 kts | 84° |
| 2026-04-29 10:02 | 21.68678 | 39.15267 | 37 ft | 10 kts | 153° |
| 2026-04-29 10:02 | 21.68609 | 39.15296 | 37 ft | 11 kts | 160° |
| 2026-04-29 10:02 | 21.68530 | 39.15327 | 37 ft | 13 kts | 160° |
| 2026-04-29 10:02 | 21.68442 | 39.15362 | 37 ft | 14 kts | 160° |
| 2026-04-29 10:03 | 21.68346 | 39.15400 | 37 ft | 15 kts | 160° |
| 2026-04-29 10:03 | 21.68244 | 39.15440 | 38 ft | 16 kts | 160° |
| 2026-04-29 10:03 | 21.68134 | 39.15484 | 38 ft | 17 kts | 160° |
| 2026-04-29 10:03 | 21.68018 | 39.15530 | 39 ft | 18 kts | 160° |
| 2026-04-29 10:04 | 21.67897 | 39.15578 | 39 ft | 19 kts | 160° |
| 2026-04-29 10:04 | 21.67770 | 39.15629 | 40 ft | 20 kts | 160° |
| 2026-04-29 10:04 | 21.67636 | 39.15682 | 40 ft | 21 kts | 160° |
| 2026-04-29 10:04 | 21.67498 | 39.15733 | 40 ft | 22 kts | 161° |
| 2026-04-29 10:05 | 21.67352 | 39.15790 | 40 ft | 23 kts | 159° |
| 2026-04-29 10:05 | 21.67200 | 39.15849 | 40 ft | 24 kts | 160° |
| 2026-04-29 10:05 | 21.67053 | 39.15908 | 41 ft | 22 kts | 159° |
| 2026-04-29 10:05 | 21.66906 | 39.15968 | 41 ft | 23 kts | 159° |
| 2026-04-29 10:06 | 21.66753 | 39.16029 | 40 ft | 24 kts | 160° |
| 2026-04-29 10:06 | 21.66621 | 39.16081 | 42 ft | 20 kts | 160° |
| 2026-04-29 10:06 | 21.66486 | 39.16134 | 42 ft | 21 kts | 161° |
| 2026-04-29 10:06 | 21.66346 | 39.16188 | 42 ft | 18 kts | 159° |
| 2026-04-29 10:07 | 21.66290 | 39.16211 | 43 ft | 8 kts | 159° |
| 2026-04-29 10:07 | 21.66232 | 39.16235 | 43 ft | 10 kts | 159° |
| 2026-04-29 10:07 | 21.66163 | 39.16263 | 42 ft | 11 kts | 161° |
| 2026-04-29 10:07 | 21.66098 | 39.16311 | 41 ft | 11 kts | 117° |
| 2026-04-29 10:08 | 21.66105 | 39.16393 | 41 ft | 12 kts | 68° |
| 2026-04-29 10:08 | 21.66143 | 39.16461 | 41 ft | 8 kts | 32° |
| 2026-04-29 10:08 | 21.66187 | 39.16459 | 41 ft | 0 kts | 339° |
| 2026-04-29 10:11 | 21.66232 | 39.16441 | 41 ft | 32 kts | 339° |
| 2026-04-29 10:12 | 21.66653 | 39.16277 | 44 ft | 95 kts | 340° |
| 2026-04-29 10:12 | 21.67452 | 39.15963 | 41 ft | 149 kts | 340° |
| 2026-04-29 10:12 | 21.68478 | 39.15561 | 565 ft | 157 kts | 340° |
| 2026-04-29 10:12 | 21.69490 | 39.15183 | 1489 ft | 152 kts | 340° |
| 2026-04-29 10:13 | 21.70515 | 39.14825 | 2018 ft | 161 kts | 341° |
| 2026-04-29 10:13 | 21.71644 | 39.14369 | 2337 ft | 183 kts | 339° |
| 2026-04-29 10:13 | 21.72884 | 39.13855 | 2710 ft | 202 kts | 339° |
| 2026-04-29 10:13 | 21.74253 | 39.13308 | 3167 ft | 219 kts | 339° |
| 2026-04-29 10:14 | 21.75760 | 39.12706 | 3572 ft | 239 kts | 339° |
| 2026-04-29 10:14 | 21.77380 | 39.12063 | 4024 ft | 255 kts | 338° |
| 2026-04-29 10:14 | 21.79080 | 39.11387 | 4572 ft | 265 kts | 338° |
| 2026-04-29 10:14 | 21.80823 | 39.10694 | 5120 ft | 274 kts | 336° |
| 2026-04-29 10:15 | 21.82632 | 39.09974 | 5676 ft | 279 kts | 336° |
| 2026-04-29 10:15 | 21.84470 | 39.09244 | 5945 ft | 282 kts | 336° |
| 2026-04-29 10:15 | 21.86331 | 39.08507 | 6006 ft | 285 kts | 337° |
| 2026-04-29 10:15 | 21.88200 | 39.07770 | 6005 ft | 286 kts | 337° |
| 2026-04-29 10:16 | 21.90048 | 39.07044 | 6008 ft | 286 kts | 337° |
| 2026-04-29 10:16 | 21.91274 | 39.06518 | 6006 ft | 285 kts | 333° |
| 2026-04-29 10:16 | 21.93678 | 39.05338 | 5999 ft | 283 kts | 332° |
| 2026-04-29 10:16 | 21.95472 | 39.04454 | 6012 ft | 283 kts | 332° |
| 2026-04-29 10:17 | 21.97262 | 39.03584 | 6008 ft | 283 kts | 333° |
| 2026-04-29 10:17 | 21.99034 | 39.02728 | 6014 ft | 284 kts | 333° |
| 2026-04-29 10:17 | 22.00855 | 39.01854 | 6004 ft | 284 kts | 333° |
| 2026-04-29 10:17 | 22.02687 | 39.00977 | 6130 ft | 287 kts | 333° |
| 2026-04-29 10:18 | 22.04499 | 39.00107 | 6634 ft | 281 kts | 333° |
| 2026-04-29 10:18 | 22.06254 | 38.99268 | 7154 ft | 278 kts | 333° |
| 2026-04-29 10:18 | 22.08017 | 38.98424 | 7622 ft | 276 kts | 332° |
| 2026-04-29 10:18 | 22.09785 | 38.97577 | 8085 ft | 276 kts | 332° |
| 2026-04-29 10:19 | 22.11522 | 38.96744 | 8510 ft | 277 kts | 332° |
| 2026-04-29 10:19 | 22.13306 | 38.95898 | 8937 ft | 279 kts | 333° |
| 2026-04-29 10:19 | 22.15165 | 38.95323 | 9365 ft | 284 kts | 348° |
| 2026-04-29 10:19 | 22.17159 | 38.95191 | 9805 ft | 289 kts | 0° |
| 2026-04-29 10:20 | 22.19142 | 38.95702 | 10044 ft | 302 kts | 24° |
| 2026-04-29 10:20 | 22.20788 | 38.97175 | 10241 ft | 325 kts | 53° |
| 2026-04-29 10:20 | 22.21769 | 38.99446 | 10545 ft | 344 kts | 72° |
| 2026-04-29 10:20 | 22.22467 | 39.01984 | 10829 ft | 361 kts | 74° |
| 2026-04-29 10:21 | 22.23193 | 39.04649 | 11120 ft | 377 kts | 73° |
| 2026-04-29 10:21 | 22.23977 | 39.07409 | 11426 ft | 390 kts | 73° |
| 2026-04-29 10:21 | 22.24793 | 39.10208 | 11899 ft | 397 kts | 72° |
| 2026-04-29 10:21 | 22.25642 | 39.13083 | 12435 ft | 402 kts | 72° |
| 2026-04-29 10:22 | 22.26504 | 39.15988 | 12949 ft | 407 kts | 72° |
| 2026-04-29 10:22 | 22.27366 | 39.18881 | 13480 ft | 411 kts | 73° |
| 2026-04-29 10:22 | 22.28248 | 39.21841 | 13970 ft | 416 kts | 73° |
| 2026-04-29 10:22 | 22.29138 | 39.24829 | 14450 ft | 419 kts | 73° |
| 2026-04-29 10:23 | 22.30037 | 39.27847 | 14941 ft | 423 kts | 72° |
| 2026-04-29 10:23 | 22.30932 | 39.30852 | 15434 ft | 426 kts | 72° |
| 2026-04-29 10:23 | 22.31847 | 39.33926 | 15913 ft | 430 kts | 72° |
| 2026-04-29 10:23 | 22.32765 | 39.37014 | 16395 ft | 433 kts | 72° |
| 2026-04-29 10:24 | 22.33683 | 39.40101 | 16882 ft | 437 kts | 72° |
| 2026-04-29 10:24 | 22.34621 | 39.43261 | 17354 ft | 441 kts | 72° |
| 2026-04-29 10:24 | 22.35562 | 39.46430 | 17836 ft | 444 kts | 72° |
| 2026-04-29 10:24 | 22.36508 | 39.49620 | 18312 ft | 448 kts | 72° |
| 2026-04-29 10:25 | 22.37453 | 39.52810 | 18729 ft | 451 kts | 72° |
| 2026-04-29 10:25 | 22.38417 | 39.56066 | 19153 ft | 454 kts | 72° |
| 2026-04-29 10:25 | 22.39385 | 39.59340 | 19585 ft | 458 kts | 72° |
| 2026-04-29 10:25 | 22.40359 | 39.62638 | 20025 ft | 462 kts | 72° |
| 2026-04-29 10:26 | 22.41328 | 39.65917 | 20459 ft | 465 kts | 72° |
| 2026-04-29 10:26 | 22.42318 | 39.69276 | 20892 ft | 469 kts | 72° |
| 2026-04-29 10:26 | 22.43315 | 39.72656 | 21341 ft | 472 kts | 72° |
| 2026-04-29 10:26 | 22.44316 | 39.76054 | 21767 ft | 476 kts | 72° |
| 2026-04-29 10:27 | 22.46762 | 39.82725 | 22594 ft | 482 kts | 57° |
| 2026-04-29 10:27 | 22.48760 | 39.85646 | 23000 ft | 484 kts | 46° |
| 2026-04-29 10:27 | 22.51096 | 39.88259 | 23370 ft | 486 kts | 40° |
| 2026-04-29 10:28 | 22.53633 | 39.90727 | 23812 ft | 487 kts | 38° |
| 2026-04-29 10:28 | 22.56196 | 39.93074 | 24189 ft | 490 kts | 37° |
| 2026-04-29 10:28 | 22.58824 | 39.95455 | 24525 ft | 494 kts | 37° |
| 2026-04-29 10:28 | 22.61438 | 39.97844 | 24876 ft | 498 kts | 37° |
| 2026-04-29 10:29 | 22.63224 | 39.99501 | 25140 ft | 501 kts | 37° |
| 2026-04-29 10:29 | 22.66736 | 40.02808 | 25590 ft | 506 kts | 38° |
| 2026-04-29 10:29 | 22.68533 | 40.04518 | 25834 ft | 509 kts | 38° |
| 2026-04-29 10:29 | 22.71175 | 40.07046 | 26209 ft | 513 kts | 38° |
| 2026-04-29 10:30 | 22.74742 | 40.10470 | 26695 ft | 518 kts | 38° |
| 2026-04-29 10:30 | 22.77457 | 40.13078 | 27062 ft | 522 kts | 37° |
| 2026-04-29 10:30 | 22.79290 | 40.14839 | 27296 ft | 524 kts | 37° |
| 2026-04-29 10:30 | 22.81997 | 40.17439 | 27611 ft | 529 kts | 37° |
| 2026-04-29 10:31 | 22.84778 | 40.20109 | 27956 ft | 533 kts | 37° |
| 2026-04-29 10:31 | 22.87563 | 40.22784 | 28291 ft | 536 kts | 37° |
| 2026-04-29 10:31 | 22.90381 | 40.25492 | 28612 ft | 541 kts | 37° |
| 2026-04-29 10:31 | 22.93179 | 40.28183 | 28924 ft | 545 kts | 37° |
| 2026-04-29 10:32 | 22.96041 | 40.30938 | 29259 ft | 548 kts | 37° |
| 2026-04-29 10:32 | 22.98896 | 40.33687 | 29543 ft | 552 kts | 37° |
| 2026-04-29 10:32 | 23.01797 | 40.36481 | 29847 ft | 556 kts | 37° |
| 2026-04-29 10:32 | 23.04707 | 40.39287 | 30138 ft | 559 kts | 37° |
| 2026-04-29 10:33 | 23.07584 | 40.42062 | 30366 ft | 562 kts | 37° |
| 2026-04-29 10:33 | 23.10519 | 40.44894 | 30617 ft | 564 kts | 37° |
| 2026-04-29 10:33 | 23.13464 | 40.47740 | 30892 ft | 566 kts | 37° |
| 2026-04-29 10:33 | 23.16410 | 40.50588 | 31173 ft | 567 kts | 37° |
| 2026-04-29 10:34 | 23.19375 | 40.53455 | 31393 ft | 569 kts | 37° |
| 2026-04-29 10:34 | 23.22333 | 40.56318 | 31653 ft | 571 kts | 37° |
| 2026-04-29 10:34 | 23.25157 | 40.59317 | 31983 ft | 575 kts | 44° |
| 2026-04-29 10:34 | 23.27599 | 40.62792 | 32353 ft | 579 kts | 54° |
| 2026-04-29 10:35 | 23.29492 | 40.66677 | 32708 ft | 581 kts | 64° |
| 2026-04-29 10:35 | 23.31053 | 40.70690 | 33065 ft | 581 kts | 66° |
| 2026-04-29 10:35 | 23.32514 | 40.74786 | 33386 ft | 581 kts | 68° |
| 2026-04-29 10:35 | 23.33923 | 40.78923 | 33731 ft | 580 kts | 69° |
| 2026-04-29 10:36 | 23.35311 | 40.83056 | 34048 ft | 580 kts | 69° |
| 2026-04-29 10:36 | 23.36697 | 40.87174 | 34340 ft | 579 kts | 69° |
| 2026-04-29 10:36 | 23.38091 | 40.91277 | 34655 ft | 577 kts | 68° |
| 2026-04-29 10:36 | 23.39477 | 40.95325 | 34948 ft | 576 kts | 68° |
| 2026-04-29 10:37 | 23.40882 | 40.99405 | 35270 ft | 574 kts | 68° |
| 2026-04-29 10:37 | 23.42289 | 41.03474 | 35566 ft | 573 kts | 68° |
| 2026-04-29 10:37 | 23.43693 | 41.07537 | 35863 ft | 572 kts | 68° |
| 2026-04-29 10:37 | 23.45094 | 41.11590 | 36146 ft | 571 kts | 68° |
| 2026-04-29 10:38 | 23.46493 | 41.15644 | 36420 ft | 570 kts | 69° |
| 2026-04-29 10:38 | 23.47870 | 41.19639 | 36680 ft | 569 kts | 69° |
| 2026-04-29 10:38 | 23.49259 | 41.23679 | 36964 ft | 568 kts | 69° |
| 2026-04-29 10:38 | 23.50631 | 41.27673 | 37236 ft | 566 kts | 69° |
| 2026-04-29 10:39 | 23.52011 | 41.31695 | 37503 ft | 566 kts | 69° |
| 2026-04-29 10:39 | 23.53389 | 41.35714 | 37727 ft | 565 kts | 69° |
| 2026-04-29 10:39 | 23.54766 | 41.39732 | 37978 ft | 564 kts | 69° |
| 2026-04-29 10:39 | 23.56140 | 41.43746 | 38228 ft | 563 kts | 69° |
| 2026-04-29 10:40 | 23.57512 | 41.47759 | 38470 ft | 562 kts | 69° |
| 2026-04-29 10:40 | 23.58862 | 41.51713 | 38686 ft | 561 kts | 69° |
| 2026-04-29 10:40 | 23.60227 | 41.55712 | 38879 ft | 561 kts | 69° |
| 2026-04-29 10:41 | 23.62939 | 41.63671 | 38941 ft | 561 kts | 69° |
| 2026-04-29 10:41 | 23.65659 | 41.71672 | 38927 ft | 562 kts | 69° |
| 2026-04-29 10:42 | 23.68358 | 41.79686 | 38937 ft | 562 kts | 70° |
| 2026-04-29 10:42 | 23.70908 | 41.87697 | 38916 ft | 562 kts | 71° |
| 2026-04-29 10:43 | 23.73444 | 41.95781 | 38912 ft | 562 kts | 71° |
| 2026-04-29 10:43 | 23.76043 | 42.03877 | 38908 ft | 562 kts | 69° |
| 2026-04-29 10:44 | 23.78778 | 42.11827 | 38907 ft | 562 kts | 69° |
| 2026-04-29 10:44 | 23.81553 | 42.19824 | 38900 ft | 562 kts | 69° |
| 2026-04-29 10:45 | 23.84286 | 42.27795 | 38901 ft | 562 kts | 69° |
| 2026-04-29 10:45 | 23.87018 | 42.35828 | 38896 ft | 562 kts | 69° |
| 2026-04-29 10:46 | 23.89727 | 42.43820 | 38892 ft | 561 kts | 70° |
| 2026-04-29 10:46 | 23.92413 | 42.51758 | 38890 ft | 557 kts | 70° |
| 2026-04-29 10:47 | 23.95104 | 42.59720 | 38893 ft | 556 kts | 70° |
| 2026-04-29 10:47 | 23.97778 | 42.67651 | 38891 ft | 556 kts | 70° |
| 2026-04-29 10:48 | 24.00433 | 42.75537 | 38892 ft | 555 kts | 70° |
| 2026-04-29 10:48 | 24.02968 | 42.83539 | 38892 ft | 555 kts | 77° |
| 2026-04-29 10:48 | 24.03612 | 42.87697 | 38893 ft | 552 kts | 88° |
| 2026-04-29 10:49 | 24.03583 | 42.91876 | 38888 ft | 547 kts | 99° |
| 2026-04-29 10:49 | 24.01932 | 42.99882 | 38889 ft | 541 kts | 110° |
| 2026-04-29 10:50 | 23.99756 | 43.07790 | 38889 ft | 541 kts | 111° |
| 2026-04-29 10:50 | 23.97548 | 43.15633 | 38888 ft | 541 kts | 111° |
| 2026-04-29 10:51 | 23.95382 | 43.23473 | 38887 ft | 540 kts | 111° |
| 2026-04-29 10:51 | 23.93228 | 43.31351 | 38885 ft | 540 kts | 111° |
| 2026-04-29 10:52 | 23.91077 | 43.39227 | 38879 ft | 539 kts | 111° |
| 2026-04-29 10:52 | 23.88938 | 43.47033 | 38880 ft | 538 kts | 111° |
| 2026-04-29 10:53 | 23.86785 | 43.54869 | 38879 ft | 537 kts | 111° |
| 2026-04-29 10:53 | 23.84629 | 43.62697 | 38873 ft | 536 kts | 111° |
| 2026-04-29 10:54 | 23.82486 | 43.70460 | 38865 ft | 535 kts | 111° |
| 2026-04-29 10:54 | 23.80333 | 43.78243 | 38864 ft | 535 kts | 111° |
| 2026-04-29 10:55 | 23.78182 | 43.86041 | 38862 ft | 535 kts | 110° |
| 2026-04-29 10:55 | 23.76992 | 43.94073 | 38862 ft | 541 kts | 99° |
| 2026-04-29 10:56 | 23.76337 | 44.02283 | 38856 ft | 542 kts | 98° |
| 2026-04-29 10:56 | 23.75763 | 44.10464 | 38852 ft | 542 kts | 98° |
| 2026-04-29 10:57 | 23.75169 | 44.18700 | 38857 ft | 542 kts | 98° |
| 2026-04-29 10:57 | 23.74558 | 44.26865 | 38850 ft | 541 kts | 98° |
| 2026-04-29 10:58 | 23.73934 | 44.35056 | 38855 ft | 540 kts | 98° |
| 2026-04-29 10:58 | 23.73309 | 44.43193 | 38847 ft | 540 kts | 98° |
| 2026-04-29 10:59 | 23.72676 | 44.51379 | 38853 ft | 539 kts | 98° |
| 2026-04-29 10:59 | 23.72043 | 44.59537 | 38854 ft | 539 kts | 98° |
| 2026-04-29 11:00 | 23.71407 | 44.67661 | 38860 ft | 539 kts | 98° |
| 2026-04-29 11:00 | 23.70764 | 44.75824 | 38854 ft | 539 kts | 98° |
| 2026-04-29 11:01 | 23.70122 | 44.83931 | 38843 ft | 538 kts | 98° |
| 2026-04-29 11:01 | 23.69473 | 44.92099 | 38847 ft | 538 kts | 98° |
| 2026-04-29 11:02 | 23.68821 | 45.00204 | 38865 ft | 538 kts | 98° |
| 2026-04-29 11:02 | 23.68161 | 45.08323 | 38851 ft | 538 kts | 99° |
| 2026-04-29 11:03 | 23.67495 | 45.16473 | 38854 ft | 539 kts | 99° |
| 2026-04-29 11:03 | 23.66832 | 45.24591 | 38854 ft | 539 kts | 99° |
| 2026-04-29 11:04 | 23.66159 | 45.32757 | 38850 ft | 539 kts | 99° |
| 2026-04-29 11:04 | 23.65480 | 45.40914 | 38847 ft | 539 kts | 99° |
| 2026-04-29 11:05 | 23.64802 | 45.49003 | 38852 ft | 539 kts | 99° |
| 2026-04-29 11:05 | 23.64116 | 45.57156 | 38839 ft | 539 kts | 99° |
| 2026-04-29 11:06 | 23.63429 | 45.65311 | 38849 ft | 538 kts | 99° |
| 2026-04-29 11:06 | 23.62744 | 45.73386 | 38842 ft | 538 kts | 99° |
| 2026-04-29 11:07 | 23.62041 | 45.81531 | 38855 ft | 538 kts | 99° |
| 2026-04-29 11:07 | 23.61341 | 45.89625 | 38847 ft | 538 kts | 99° |
| 2026-04-29 11:08 | 23.60634 | 45.97759 | 38860 ft | 537 kts | 99° |
| 2026-04-29 11:08 | 23.59929 | 46.05825 | 38865 ft | 537 kts | 99° |
| 2026-04-29 11:09 | 23.59216 | 46.13937 | 38864 ft | 536 kts | 99° |
| 2026-04-29 11:09 | 23.58503 | 46.22006 | 38875 ft | 535 kts | 99° |
| 2026-04-29 11:10 | 23.57782 | 46.30107 | 38878 ft | 535 kts | 99° |
| 2026-04-29 11:10 | 23.57062 | 46.38143 | 38886 ft | 535 kts | 99° |
| 2026-04-29 11:11 | 23.56336 | 46.46209 | 38883 ft | 534 kts | 99° |
| 2026-04-29 11:11 | 23.55606 | 46.54283 | 38878 ft | 534 kts | 99° |
| 2026-04-29 11:12 | 23.54882 | 46.62261 | 38881 ft | 534 kts | 99° |
| 2026-04-29 11:12 | 23.54140 | 46.70345 | 38877 ft | 533 kts | 99° |
| 2026-04-29 11:13 | 23.53396 | 46.78416 | 38871 ft | 533 kts | 99° |
| 2026-04-29 11:13 | 23.52659 | 46.86357 | 38863 ft | 532 kts | 99° |
| 2026-04-29 11:14 | 23.51907 | 46.94420 | 38859 ft | 532 kts | 99° |
| 2026-04-29 11:14 | 23.51158 | 47.02418 | 38853 ft | 531 kts | 99° |
| 2026-04-29 11:15 | 23.50416 | 47.10294 | 38845 ft | 531 kts | 99° |